createdAt,value
2019-04-03T00:01:09.297Z,83.20
2019-04-03T00:03:38.725Z,83.90
2019-04-03T00:06:08.184Z,85.10
2019-04-03T00:08:37.648Z,83.90
2019-04-03T00:11:09.456Z,83.70
2019-04-03T00:13:41.575Z,85.30
2019-04-03T00:16:09.604Z,85.60
2019-04-03T00:18:39.059Z,83.90
2019-04-03T00:21:08.486Z,85.20
2019-04-03T00:23:37.959Z,83.80
2019-04-03T00:26:07.412Z,85.30
2019-04-03T00:28:36.855Z,85.30
2019-04-03T00:31:06.334Z,85.50
2019-04-03T00:33:35.836Z,87.60
2019-04-03T00:36:05.290Z,85.30
2019-04-03T00:38:34.767Z,86.50
2019-04-03T00:41:04.555Z,85.20
2019-04-03T00:43:33.977Z,85.40
2019-04-03T00:46:03.496Z,85.70
2019-04-03T00:48:32.999Z,86.00
2019-04-03T00:51:02.408Z,87.10
2019-04-03T00:53:31.895Z,85.80
2019-04-03T00:56:01.475Z,85.90
2019-04-03T00:58:37.943Z,85.60
2019-04-03T01:01:13.908Z,85.80
2019-04-03T01:03:43.364Z,86.70
2019-04-03T01:06:12.879Z,87.20
2019-04-03T01:08:42.306Z,86.90
2019-04-03T01:11:11.971Z,88.10
2019-04-03T01:13:41.414Z,87.00
2019-04-03T01:16:10.856Z,85.80
2019-04-03T01:18:40.333Z,87.00
2019-04-03T01:21:09.768Z,86.20
2019-04-03T01:23:39.215Z,86.20
2019-04-03T01:26:10.090Z,85.90
2019-04-03T01:28:41.654Z,86.30
2019-04-03T01:31:11.351Z,88.90
2019-04-03T01:33:42.229Z,86.20
2019-04-03T01:36:11.699Z,87.50
2019-04-03T01:38:41.213Z,87.40
2019-04-03T01:41:10.706Z,87.40
2019-04-03T01:43:40.162Z,87.40
2019-04-03T01:46:09.607Z,87.40
2019-04-03T01:48:39.109Z,88.40
2019-04-03T01:51:08.568Z,88.20
2019-04-03T01:53:37.994Z,88.20
2019-04-03T01:56:07.487Z,88.10
2019-04-03T01:58:37.021Z,88.70
2019-04-03T02:01:08.109Z,87.50
2019-04-03T02:03:37.648Z,88.60
2019-04-03T02:06:07.130Z,88.40
2019-04-03T02:08:36.576Z,89.80
2019-04-03T02:11:06.350Z,90.20
2019-04-03T02:13:35.908Z,88.30
2019-04-03T02:16:05.409Z,89.60
2019-04-03T02:18:34.869Z,90.00
2019-04-03T02:21:04.315Z,89.70
2019-04-03T02:23:33.827Z,88.80
2019-04-03T02:26:03.464Z,90.40
2019-04-03T02:28:35.103Z,90.00
2019-04-03T02:31:04.165Z,89.40
2019-04-03T02:33:33.931Z,90.20
2019-04-03T02:36:03.598Z,90.00
2019-04-03T02:38:33.140Z,90.00
2019-04-03T02:41:04.184Z,90.20
2019-04-03T02:43:33.702Z,90.50
2019-04-03T02:46:03.490Z,90.40
2019-04-03T02:48:33.070Z,90.40
2019-04-03T02:51:03.089Z,90.60
2019-04-03T02:53:52.262Z,90.40
2019-04-03T02:56:21.739Z,90.50
2019-04-03T02:58:53.599Z,91.00
2019-04-03T03:01:22.342Z,90.90
2019-04-03T03:03:51.967Z,90.80
2019-04-03T03:06:21.634Z,90.80
2019-04-03T03:08:52.433Z,90.90
2019-04-03T03:11:24.610Z,91.10
2019-04-03T03:13:55.009Z,91.20
2019-04-03T03:16:26.944Z,90.90
2019-04-03T03:18:59.984Z,91.50
2019-04-03T03:21:28.920Z,91.50
2019-04-03T03:23:58.998Z,91.30
2019-04-03T03:26:29.867Z,91.30
2019-04-03T03:29:15.536Z,91.60
2019-04-03T03:31:59.900Z,91.70
2019-04-03T03:34:05.816Z,91.40
2019-04-03T03:36:36.238Z,91.70
2019-04-03T03:39:10.425Z,91.90
2019-04-03T03:41:39.449Z,91.70
2019-04-03T03:44:10.597Z,91.60
2019-04-03T03:46:41.966Z,91.80
2019-04-03T03:49:15.931Z,91.60
2019-04-03T03:51:44.687Z,91.80
2019-04-03T03:54:17.515Z,91.80
2019-04-03T03:56:47.070Z,92.10
2019-04-03T03:59:18.807Z,91.60
2019-04-03T04:01:49.657Z,91.70
2019-04-03T04:04:19.388Z,92.00
2019-04-03T04:06:49.018Z,92.10
2019-04-03T04:09:18.696Z,92.00
2019-04-03T04:11:48.332Z,92.10
2019-04-03T04:14:21.122Z,92.20
2019-04-03T04:16:49.560Z,92.20
2019-04-03T04:19:19.519Z,92.10
2019-04-03T04:21:49.334Z,92.30
2019-04-03T04:24:19.675Z,92.40
2019-04-03T04:26:50.237Z,92.10
2019-04-03T04:29:20.199Z,92.80
2019-04-03T04:31:49.669Z,92.30
2019-04-03T04:34:19.585Z,92.50
2019-04-03T04:36:49.044Z,92.60
2019-04-03T04:39:18.486Z,92.60
2019-04-03T04:41:47.992Z,92.80
2019-04-03T04:44:17.488Z,92.60
2019-04-03T04:46:47.033Z,92.60
2019-04-03T04:49:16.414Z,92.80
2019-04-03T04:51:46.058Z,92.70
2019-04-03T04:54:15.499Z,92.60
2019-04-03T04:56:44.968Z,92.80
2019-04-03T04:59:14.639Z,92.60
2019-04-03T05:01:44.254Z,92.90
2019-04-03T05:04:15.865Z,93.20
2019-04-03T05:06:44.903Z,92.90
2019-04-03T05:09:14.590Z,93.00
2019-04-03T05:11:44.026Z,95.90
2019-04-03T05:14:13.602Z,93.70
2019-04-03T05:16:43.020Z,93.50
2019-04-03T05:19:17.606Z,94.00
2019-04-03T05:21:43.641Z,95.30
2019-04-03T05:24:13.811Z,94.30
2019-04-03T05:26:43.424Z,93.80
2019-04-03T05:29:12.880Z,94.50
2019-04-03T05:31:42.333Z,93.90
2019-04-03T05:34:13.200Z,93.60
2019-04-03T05:36:43.000Z,93.40
2019-04-03T05:39:12.491Z,93.40
2019-04-03T05:41:42.135Z,93.00
2019-04-03T05:44:11.683Z,93.20
2019-04-03T05:46:41.136Z,93.60
2019-04-03T05:49:11.003Z,92.90
2019-04-03T05:51:40.527Z,92.70
2019-04-03T05:54:10.023Z,92.70
2019-04-03T05:56:42.489Z,92.80
2019-04-03T05:59:10.707Z,92.70
2019-04-03T06:01:42.632Z,92.90
2019-04-03T06:04:11.581Z,92.80
2019-04-03T06:06:41.020Z,92.70
2019-04-03T06:09:10.504Z,93.00
2019-04-03T06:11:41.097Z,92.60
2019-04-03T06:14:10.688Z,92.70
2019-04-03T06:16:40.369Z,92.80
2019-04-03T06:19:09.973Z,92.90
2019-04-03T06:21:39.458Z,92.70
2019-04-03T06:24:08.901Z,92.90
2019-04-03T06:26:38.623Z,91.90
2019-04-03T06:29:08.377Z,92.50
2019-04-03T06:31:37.825Z,91.90
2019-04-03T06:34:08.097Z,92.20
2019-04-03T06:36:37.615Z,92.40
2019-04-03T06:39:08.803Z,92.40
2019-04-03T06:41:38.286Z,91.90
2019-04-03T06:44:08.803Z,90.70
2019-04-03T06:46:38.261Z,91.10
2019-04-03T06:49:08.582Z,91.10
2019-04-03T06:51:38.444Z,90.60
2019-04-03T06:54:08.357Z,91.10
2019-04-03T06:56:39.999Z,90.30
2019-04-03T06:59:09.021Z,90.80
2019-04-03T07:01:38.466Z,90.10
2019-04-03T07:04:07.925Z,90.30
2019-04-03T07:06:37.385Z,90.50
2019-04-03T07:09:21.071Z,89.50
2019-04-03T07:11:39.853Z,90.10
2019-04-03T07:14:09.333Z,89.90
2019-04-03T07:16:39.046Z,90.50
2019-04-03T07:19:09.030Z,89.50
2019-04-03T07:21:38.492Z,89.50
2019-04-03T07:24:07.947Z,87.80
2019-04-03T07:26:37.402Z,87.90
2019-04-03T07:29:06.946Z,89.80
2019-04-03T07:31:36.392Z,87.20
2019-04-03T07:34:05.927Z,87.60
2019-04-03T07:36:35.407Z,90.30
2019-04-03T07:39:10.607Z,87.90
2019-04-03T07:41:41.571Z,88.60
2019-04-03T07:44:10.678Z,87.80
2019-04-03T07:46:40.173Z,86.40
2019-04-03T07:49:10.027Z,87.00
2019-04-03T07:51:42.730Z,88.30
2019-04-03T07:54:11.598Z,88.40
2019-04-03T07:56:41.073Z,86.50
2019-04-03T07:59:10.565Z,86.20
2019-04-03T08:01:41.292Z,85.90
2019-04-03T08:04:11.336Z,89.50
2019-04-03T08:06:40.833Z,91.10
2019-04-03T08:09:10.575Z,87.40
2019-04-03T08:11:40.088Z,85.30
2019-04-03T08:14:10.002Z,86.00
2019-04-03T08:16:42.127Z,84.80
2019-04-03T08:19:10.928Z,90.30
2019-04-03T08:21:40.406Z,85.50
2019-04-03T08:24:09.835Z,88.70
2019-04-03T08:26:39.288Z,87.70
2019-04-03T08:29:08.753Z,88.50
2019-04-03T08:31:38.426Z,86.90
2019-04-03T08:34:15.916Z,89.90
2019-04-03T08:36:39.912Z,85.80
2019-04-03T08:39:09.688Z,88.70
2019-04-03T08:41:39.151Z,89.60
2019-04-03T08:44:09.246Z,88.60
2019-04-03T08:46:38.840Z,87.90
2019-04-03T08:49:08.451Z,85.60
2019-04-03T08:51:37.944Z,87.40
2019-04-03T08:54:09.528Z,85.50
2019-04-03T08:56:38.596Z,87.10
2019-04-03T08:59:08.240Z,86.30
2019-04-03T09:01:38.221Z,84.20
2019-04-03T09:04:08.003Z,83.70
2019-04-03T09:06:37.463Z,83.60
2019-04-03T09:09:10.623Z,84.80
2019-04-03T09:11:40.154Z,86.00
2019-04-03T09:14:09.563Z,84.50
2019-04-03T09:16:39.020Z,84.10
2019-04-03T09:19:10.222Z,84.80
2019-04-03T09:21:39.906Z,84.10
2019-04-03T09:24:09.405Z,83.70
2019-04-03T09:26:38.900Z,83.50
2019-04-03T09:29:08.354Z,84.30
2019-04-03T09:31:37.783Z,85.60
2019-04-03T09:34:07.273Z,82.90
2019-04-03T09:36:36.692Z,83.40
2019-04-03T09:39:12.927Z,82.50
2019-04-03T09:41:41.606Z,83.70
2019-04-03T09:44:11.116Z,83.20
2019-04-03T09:46:40.585Z,83.70
2019-04-03T09:49:10.118Z,83.10
2019-04-03T09:51:39.586Z,84.70
2019-04-03T09:54:09.267Z,84.40
2019-04-03T09:56:54.834Z,84.00
2019-04-03T09:59:09.985Z,84.00
2019-04-03T10:01:39.445Z,83.90
2019-04-03T10:04:09.069Z,83.90
2019-04-03T10:06:38.561Z,82.30
2019-04-03T10:09:11.780Z,83.30
2019-04-03T10:11:40.029Z,83.20
2019-04-03T10:14:09.500Z,83.20
2019-04-03T10:16:38.943Z,82.80
2019-04-03T10:19:08.403Z,82.70
2019-04-03T10:21:37.941Z,83.70
2019-04-03T10:24:07.451Z,82.40
2019-04-03T10:26:39.429Z,82.50
2019-04-03T10:29:08.123Z,82.60
2019-04-03T10:31:37.597Z,81.30
2019-04-03T10:34:07.228Z,81.80
2019-04-03T10:36:36.762Z,81.20
2019-04-03T10:39:10.623Z,81.20
2019-04-03T10:41:40.555Z,81.20
2019-04-03T10:44:10.366Z,80.60
2019-04-03T10:46:39.955Z,80.90
2019-04-03T10:49:09.615Z,82.30
2019-04-03T10:51:41.141Z,81.70
2019-04-03T10:54:10.333Z,81.30
2019-04-03T10:56:39.880Z,81.00
2019-04-03T10:59:12.627Z,81.90
2019-04-03T11:01:40.565Z,81.20
2019-04-03T11:04:10.024Z,80.30
2019-04-03T11:06:39.486Z,81.10
2019-04-03T11:09:10.227Z,80.30
2019-04-03T11:11:42.696Z,79.70
2019-04-03T11:14:10.949Z,80.60
2019-04-03T11:16:59.741Z,81.70
2019-04-03T11:19:29.200Z,86.00
2019-04-03T11:21:58.693Z,79.50
2019-04-03T11:24:28.144Z,79.70
2019-04-03T11:26:57.616Z,79.70
2019-04-03T11:29:27.271Z,79.80
2019-04-03T11:31:56.752Z,79.20
2019-04-03T11:34:26.269Z,80.00
2019-04-03T11:36:55.766Z,80.40
2019-04-03T11:39:25.607Z,79.70
2019-04-03T11:41:56.296Z,80.60
2019-04-03T11:44:25.982Z,80.80
2019-04-03T11:46:55.875Z,79.90
2019-04-03T11:49:25.379Z,79.40
2019-04-03T11:51:55.141Z,79.40
2019-04-03T11:54:25.062Z,80.00
2019-04-03T11:56:56.619Z,80.40
2019-04-03T11:59:26.055Z,80.20
2019-04-03T12:01:55.618Z,79.70
2019-04-03T12:04:25.044Z,79.70
2019-04-03T12:06:54.511Z,79.50
2019-04-03T12:09:23.965Z,79.50
2019-04-03T12:11:55.084Z,79.30
2019-04-03T12:14:24.780Z,78.80
2019-04-03T12:16:57.067Z,79.00
2019-04-03T12:19:26.104Z,79.30
2019-04-03T12:21:55.564Z,78.50
2019-04-03T12:24:25.156Z,79.30
2019-04-03T12:26:55.486Z,79.00
2019-04-03T12:29:25.531Z,78.60
2019-04-03T12:31:54.984Z,78.90
2019-04-03T12:34:24.443Z,78.40
2019-04-03T12:36:53.875Z,78.20
2019-04-03T12:39:26.976Z,79.20
2019-04-03T12:41:57.489Z,79.70
2019-04-03T12:44:27.681Z,78.50
2019-04-03T12:46:57.148Z,78.80
2019-04-03T12:49:26.818Z,78.20
2019-04-03T12:51:56.248Z,77.90
2019-04-03T12:54:26.008Z,78.20
2019-04-03T12:56:55.861Z,78.30
2019-04-03T12:59:25.381Z,77.90
2019-04-03T13:01:55.048Z,77.80
2019-04-03T13:04:25.666Z,78.00
2019-04-03T13:06:55.979Z,75.80
2019-04-03T13:09:25.460Z,74.80
2019-04-03T13:11:55.095Z,74.40
2019-04-03T13:14:26.924Z,75.40
2019-04-03T13:16:56.225Z,74.00
2019-04-03T13:19:25.736Z,75.30
2019-04-03T13:21:55.182Z,75.50
2019-04-03T13:24:24.744Z,74.00
2019-04-03T13:26:55.708Z,73.90
2019-04-03T13:29:25.357Z,74.20
2019-04-03T13:31:55.015Z,73.60
2019-04-03T13:34:24.420Z,73.20
2019-04-03T13:36:54.143Z,72.40
2019-04-03T13:39:23.662Z,72.80
2019-04-03T13:41:53.093Z,72.40
2019-04-03T13:44:26.061Z,71.20
2019-04-03T13:46:54.059Z,71.80
2019-04-03T13:49:23.581Z,71.20
2019-04-03T13:51:53.029Z,71.10
2019-04-03T13:54:25.036Z,72.50
2019-04-03T13:56:53.857Z,70.20
2019-04-03T13:59:25.840Z,72.30
2019-04-03T14:01:55.314Z,71.30
2019-04-03T14:04:24.975Z,71.20
2019-04-03T14:06:55.281Z,71.80
2019-04-03T14:09:24.976Z,70.70
2019-04-03T14:11:54.688Z,71.00
2019-04-03T14:14:24.498Z,70.40
2019-04-03T14:16:53.998Z,70.20
2019-04-03T14:19:24.971Z,70.40
2019-04-03T14:21:54.616Z,69.20
2019-04-03T14:24:36.022Z,71.70
2019-04-03T14:26:55.496Z,72.10
2019-04-03T14:29:25.019Z,71.60
2019-04-03T14:31:54.436Z,71.40
2019-04-03T14:34:23.844Z,70.20
2019-04-03T14:36:53.295Z,70.60
2019-04-03T14:39:22.827Z,67.80
2019-04-03T14:41:54.668Z,68.30
2019-04-03T14:44:23.891Z,70.60
2019-04-03T14:46:53.595Z,70.10
2019-04-03T14:49:23.115Z,68.90
2019-04-03T14:51:52.875Z,69.70
2019-04-03T14:54:24.621Z,69.10
2019-04-03T14:56:53.605Z,69.60
2019-04-03T14:59:23.379Z,69.00
2019-04-03T15:01:52.967Z,69.60
2019-04-03T15:04:22.405Z,70.30
2019-04-03T15:07:01.728Z,71.70
2019-04-03T15:09:26.564Z,70.30
2019-04-03T15:11:56.112Z,71.80
2019-04-03T15:14:27.547Z,71.10
2019-04-03T15:16:57.213Z,70.60
2019-04-03T15:19:28.805Z,71.50
2019-04-03T15:22:01.644Z,71.50
2019-04-03T15:24:29.335Z,70.30
2019-04-03T15:26:58.785Z,70.60
2019-04-03T15:29:28.368Z,70.40
2019-04-03T15:31:58.098Z,70.30
2019-04-03T15:34:28.631Z,67.40
2019-04-03T15:36:59.292Z,69.80
2019-04-03T15:39:28.726Z,70.00
2019-04-03T15:41:58.182Z,70.30
2019-04-03T15:44:47.005Z,67.70
2019-04-03T15:47:20.486Z,71.70
2019-04-03T15:49:47.848Z,69.80
2019-04-03T15:52:17.269Z,68.60
2019-04-03T15:54:46.799Z,67.90
2019-04-03T15:57:18.753Z,69.90
2019-04-03T15:59:47.952Z,69.00
2019-04-03T16:02:17.460Z,69.90
2019-04-03T16:04:46.885Z,68.00
2019-04-03T16:07:16.357Z,68.90
2019-04-03T16:09:45.863Z,70.50
2019-04-03T16:12:15.294Z,70.30
2019-04-03T16:14:45.234Z,69.40
2019-04-03T16:17:14.711Z,71.00
2019-04-03T16:19:44.758Z,68.80
2019-04-03T16:22:14.658Z,70.10
2019-04-03T16:24:44.611Z,70.30
2019-04-03T16:27:14.988Z,68.30
2019-04-03T16:29:44.816Z,70.90
2019-04-03T16:32:14.247Z,69.70
2019-04-03T16:34:43.889Z,70.40
2019-04-03T16:37:13.447Z,68.10
2019-04-03T16:39:43.471Z,70.70
2019-04-03T16:42:14.164Z,68.60
2019-04-03T16:44:44.272Z,71.50
2019-04-03T16:47:14.501Z,69.80
2019-04-03T16:49:45.294Z,70.50
2019-04-03T16:52:14.785Z,71.80
2019-04-03T16:54:45.387Z,71.30
2019-04-03T16:57:14.982Z,71.90
2019-04-03T16:59:44.876Z,71.00
2019-04-03T17:02:14.405Z,70.70
2019-04-03T17:04:43.852Z,72.10
2019-04-03T17:07:13.337Z,71.30
2019-04-03T17:09:43.125Z,71.60
2019-04-03T17:12:12.716Z,72.10
2019-04-03T17:14:42.197Z,71.40
2019-04-03T17:17:14.076Z,73.10
2019-04-03T17:19:43.342Z,71.10
2019-04-03T17:22:14.148Z,71.50
2019-04-03T17:24:48.437Z,72.90
2019-04-03T17:27:14.835Z,73.40
2019-04-03T17:29:46.693Z,74.00
2019-04-03T17:32:15.638Z,73.60
2019-04-03T17:34:45.067Z,74.60
2019-04-03T17:37:14.521Z,73.80
2019-04-03T17:39:43.955Z,74.20
2019-04-03T17:42:13.384Z,73.40
2019-04-03T17:44:44.677Z,73.10
2019-04-03T17:47:14.006Z,74.30
2019-04-03T17:49:43.457Z,73.40
2019-04-03T17:52:14.521Z,75.00
2019-04-03T17:54:43.969Z,73.10
2019-04-03T17:57:13.751Z,74.00
2019-04-03T17:59:43.974Z,74.20
2019-04-03T18:02:13.421Z,73.20
2019-04-03T18:04:42.869Z,73.70
2019-04-03T18:07:12.345Z,73.70
2019-04-03T18:09:42.084Z,74.10
2019-04-03T18:12:11.658Z,76.00
2019-04-03T18:14:41.117Z,74.70
2019-04-03T18:17:10.539Z,76.60
2019-04-03T18:19:41.823Z,75.60
2019-04-03T18:22:11.189Z,75.30
2019-04-03T18:24:40.639Z,76.60
2019-04-03T18:27:10.089Z,75.70
2019-04-03T18:29:39.637Z,76.20
2019-04-03T18:32:09.069Z,77.40
2019-04-03T18:34:38.537Z,76.90
2019-04-03T18:37:08.014Z,77.40
2019-04-03T18:39:40.271Z,77.20
2019-04-03T18:42:09.637Z,77.40
2019-04-03T18:44:39.098Z,78.10
2019-04-03T18:47:08.577Z,76.80
2019-04-03T18:49:38.029Z,77.30
2019-04-03T18:52:07.939Z,77.70
2019-04-03T18:54:38.033Z,77.10
2019-04-03T18:57:07.500Z,78.00
2019-04-03T18:59:36.952Z,77.70
2019-04-03T19:02:08.160Z,79.30
2019-04-03T19:04:38.301Z,78.70
2019-04-03T19:07:07.737Z,77.70
2019-04-03T19:09:37.185Z,79.00
2019-04-03T19:12:08.566Z,78.80
2019-04-03T19:14:37.800Z,78.40
2019-04-03T19:17:07.300Z,79.80
2019-04-03T19:19:36.767Z,79.40
2019-04-03T19:22:06.248Z,79.70
2019-04-03T19:24:35.695Z,82.10
2019-04-03T19:27:05.316Z,79.40
2019-04-03T19:29:35.791Z,78.20
2019-04-03T19:32:05.719Z,79.00
2019-04-03T19:34:35.174Z,80.80
2019-04-03T19:37:04.607Z,80.30
2019-04-03T19:39:37.787Z,80.00
2019-04-03T19:42:07.655Z,79.30
2019-04-03T19:44:37.137Z,79.30
2019-04-03T19:47:06.585Z,80.80
2019-04-03T19:49:36.036Z,80.70
2019-04-03T19:52:06.088Z,79.90
2019-04-03T19:54:37.281Z,81.40
2019-04-03T19:57:06.738Z,84.00
2019-04-03T19:59:36.220Z,81.70
2019-04-03T20:02:05.697Z,83.60
2019-04-03T20:04:35.179Z,83.50
2019-04-03T20:07:04.702Z,83.20
2019-04-03T20:09:34.163Z,85.00
2019-04-03T20:12:06.795Z,87.70
2019-04-03T20:14:34.821Z,83.00
2019-04-03T20:17:04.273Z,84.10
2019-04-03T20:19:33.773Z,88.00
2019-04-03T20:22:06.717Z,86.30
2019-04-03T20:24:35.448Z,88.40
2019-04-03T20:27:04.974Z,85.90
2019-04-03T20:29:34.435Z,86.80
2019-04-03T20:32:05.020Z,89.20
2019-04-03T20:34:35.378Z,86.40
2019-04-03T20:37:06.309Z,82.10
2019-04-03T20:39:35.775Z,85.60
2019-04-03T20:42:07.378Z,88.10
2019-04-03T20:44:38.897Z,86.40
2019-04-03T20:47:07.837Z,88.40
2019-04-03T20:49:37.309Z,83.30
2019-04-03T20:52:06.769Z,88.30
2019-04-03T20:54:48.294Z,84.80
2019-04-03T20:57:17.729Z,91.60
2019-04-03T20:59:58.546Z,85.30
2019-04-03T21:02:18.521Z,84.50
2019-04-03T21:04:48.047Z,83.60
2019-04-03T21:07:17.529Z,87.10
2019-04-03T21:09:46.979Z,81.90
2019-04-03T21:12:16.460Z,87.50
2019-04-03T21:14:47.529Z,82.30
2019-04-03T21:17:18.915Z,86.70
2019-04-03T21:19:52.013Z,86.10
2019-04-03T21:22:19.671Z,86.40
2019-04-03T21:24:49.136Z,86.90
2019-04-03T21:27:18.603Z,84.30
2019-04-03T21:29:49.514Z,83.70
2019-04-03T21:32:19.223Z,88.00
2019-04-03T21:34:48.686Z,82.40
2019-04-03T21:37:18.111Z,83.80
2019-04-03T21:39:47.601Z,85.00
2019-04-03T21:42:17.023Z,88.20
2019-04-03T21:44:46.679Z,82.50
2019-04-03T21:47:16.148Z,86.40
2019-04-03T21:49:47.340Z,86.40
2019-04-03T21:52:16.775Z,85.40
2019-04-03T21:54:46.209Z,81.70
2019-04-03T21:57:15.635Z,86.00
2019-04-03T21:59:45.153Z,86.50
2019-04-03T22:02:16.175Z,81.80
2019-04-03T22:04:45.765Z,87.20
2019-04-03T22:07:15.254Z,82.60
2019-04-03T22:09:44.686Z,86.10
2019-04-03T22:12:14.136Z,85.20
2019-04-03T22:14:43.593Z,88.20
2019-04-03T22:17:13.021Z,83.80
2019-04-03T22:19:42.476Z,83.30
2019-04-03T22:22:11.948Z,85.00
2019-04-03T22:24:41.403Z,86.50
2019-04-03T22:27:11.613Z,85.70
2019-04-03T22:29:41.581Z,87.90
2019-04-03T22:32:11.028Z,84.20
2019-04-03T22:34:40.465Z,84.60
2019-04-03T22:37:09.945Z,88.00
2019-04-03T22:39:39.694Z,88.40
2019-04-03T22:42:09.247Z,85.20
2019-04-03T22:44:38.702Z,86.20
2019-04-03T22:47:08.139Z,86.10
2019-04-03T22:49:37.565Z,86.20
2019-04-03T22:52:08.802Z,88.20
2019-04-03T22:54:38.190Z,86.20
2019-04-03T22:57:07.697Z,84.00
2019-04-03T22:59:37.167Z,86.80
2019-04-03T23:02:06.612Z,86.90
2019-04-03T23:04:36.079Z,89.30
2019-04-03T23:07:05.527Z,87.70
2019-04-03T23:09:34.977Z,83.90
2019-04-03T23:12:04.411Z,86.60
2019-04-03T23:14:33.861Z,84.80
2019-04-03T23:17:03.309Z,86.10
2019-04-03T23:19:32.939Z,86.70
2019-04-03T23:22:02.407Z,86.50
2019-04-03T23:24:31.874Z,86.90
2019-04-03T23:27:02.719Z,88.20
2019-04-03T23:29:35.878Z,85.60
2019-04-03T23:32:03.814Z,88.10
2019-04-03T23:34:33.236Z,85.30
2019-04-03T23:37:02.715Z,87.10
2019-04-03T23:39:32.163Z,82.60
2019-04-03T23:42:01.632Z,88.40
2019-04-03T23:44:31.099Z,88.50
2019-04-03T23:47:00.525Z,85.60
2019-04-03T23:49:30.059Z,89.10
2019-04-03T23:51:59.626Z,87.40
2019-04-03T23:54:29.087Z,88.10
2019-04-03T23:56:58.545Z,86.30
2019-04-03T23:59:28.012Z,87.00
